EQX571 LPPT-LFBO
Flight info
| Callsign | EQX571 |
|---|---|
| Flight time | 1h 36m |
| Altitude | 38000 |
| Route | IXIDA DCT TOSDI DCT ZMR DCT NEA DCT DGO DCT LPA DCT GOSVI/N0370F280 DCT TOPTU |
| Aircraft | A20N/M-SDE2E3FGHIRWXY/LB1 |
Departure
| Time | 2026-05-04 14:32 |
|---|---|
| Airport | Lisbon Humberto Delgado Airport (LPPT) |
Arrival
| Time | 2026-05-04 16:08 |
|---|---|
| Airport | Toulouse-Blagnac Airport (LFBO) |
| Time | Latitude | Longitude | Altitude | Speed | Heading |
|---|---|---|---|---|---|
| 2026-05-04 14:02 | 38.77254 | -9.13164 | 347 ft | 0 kts | 75° |
| 2026-05-04 14:21 | 38.77252 | -9.13175 | 347 ft | 2 kts | 75° |
| 2026-05-04 14:21 | 38.77248 | -9.13193 | 356 ft | 2 kts | 75° |
| 2026-05-04 14:21 | 38.77244 | -9.13212 | 349 ft | 2 kts | 57° |
| 2026-05-04 14:21 | 38.77234 | -9.13226 | 357 ft | 2 kts | 29° |
| 2026-05-04 14:22 | 38.77220 | -9.13233 | 353 ft | 2 kts | 6° |
| 2026-05-04 14:22 | 38.77205 | -9.13231 | 354 ft | 2 kts | 338° |
| 2026-05-04 14:22 | 38.77200 | -9.13229 | 347 ft | 0 kts | 347° |
| 2026-05-04 14:27 | 38.77203 | -9.13230 | 347 ft | 3 kts | 347° |
| 2026-05-04 14:28 | 38.77249 | -9.13243 | 350 ft | 11 kts | 348° |
| 2026-05-04 14:28 | 38.77324 | -9.13297 | 349 ft | 14 kts | 286° |
| 2026-05-04 14:28 | 38.77306 | -9.13435 | 355 ft | 17 kts | 259° |
| 2026-05-04 14:28 | 38.77281 | -9.13598 | 347 ft | 20 kts | 258° |
| 2026-05-04 14:29 | 38.77134 | -9.13897 | 349 ft | 23 kts | 203° |
| 2026-05-04 14:29 | 38.76795 | -9.14077 | 347 ft | 29 kts | 204° |
| 2026-05-04 14:30 | 38.76616 | -9.14194 | 355 ft | 21 kts | 234° |
| 2026-05-04 14:30 | 38.76649 | -9.14364 | 339 ft | 21 kts | 330° |
| 2026-05-04 14:30 | 38.76726 | -9.14346 | 346 ft | 0 kts | 18° |
| 2026-05-04 14:31 | 38.76762 | -9.14330 | 349 ft | 32 kts | 21° |
| 2026-05-04 14:31 | 38.78152 | -9.13594 | 569 ft | 157 kts | 19° |
| 2026-05-04 14:32 | 38.80417 | -9.12161 | 1622 ft | 208 kts | 24° |
| 2026-05-04 14:32 | 38.81764 | -9.11211 | 2237 ft | 231 kts | 24° |
| 2026-05-04 14:32 | 38.83258 | -9.10208 | 3045 ft | 250 kts | 24° |
| 2026-05-04 14:32 | 38.84796 | -9.09132 | 4184 ft | 256 kts | 26° |
| 2026-05-04 14:33 | 38.86352 | -9.07992 | 5305 ft | 260 kts | 27° |
| 2026-05-04 14:33 | 38.87928 | -9.06801 | 6367 ft | 267 kts | 28° |
| 2026-05-04 14:33 | 38.89524 | -9.05522 | 7371 ft | 273 kts | 33° |
| 2026-05-04 14:33 | 38.90986 | -9.03918 | 8411 ft | 280 kts | 39° |
| 2026-05-04 14:34 | 38.92433 | -9.02210 | 9449 ft | 286 kts | 39° |
| 2026-05-04 14:34 | 38.93919 | -9.00466 | 10418 ft | 293 kts | 39° |
| 2026-05-04 14:34 | 38.95485 | -8.98641 | 10923 ft | 316 kts | 39° |
| 2026-05-04 14:34 | 38.97182 | -8.96670 | 11307 ft | 341 kts | 39° |
| 2026-05-04 14:35 | 38.98950 | -8.94610 | 12020 ft | 351 kts | 39° |
| 2026-05-04 14:35 | 39.00775 | -8.92474 | 12904 ft | 358 kts | 39° |
| 2026-05-04 14:35 | 39.02637 | -8.90292 | 13765 ft | 365 kts | 38° |
| 2026-05-04 14:35 | 39.04533 | -8.88072 | 14541 ft | 371 kts | 38° |
| 2026-05-04 14:36 | 39.06459 | -8.85816 | 15349 ft | 376 kts | 38° |
| 2026-05-04 14:36 | 39.08408 | -8.83532 | 16113 ft | 382 kts | 38° |
| 2026-05-04 14:36 | 39.10387 | -8.81213 | 16892 ft | 387 kts | 38° |
| 2026-05-04 14:36 | 39.12396 | -8.78857 | 17654 ft | 393 kts | 38° |
| 2026-05-04 14:37 | 39.14433 | -8.76466 | 18387 ft | 399 kts | 38° |
| 2026-05-04 14:37 | 39.16490 | -8.74030 | 19056 ft | 404 kts | 40° |
| 2026-05-04 14:37 | 39.18402 | -8.71338 | 19747 ft | 411 kts | 45° |
| 2026-05-04 14:37 | 39.20298 | -8.68547 | 20411 ft | 415 kts | 45° |
| 2026-05-04 14:38 | 39.22214 | -8.65740 | 21080 ft | 419 kts | 45° |
| 2026-05-04 14:38 | 39.24155 | -8.62898 | 21733 ft | 424 kts | 45° |
| 2026-05-04 14:38 | 39.26113 | -8.60028 | 22382 ft | 429 kts | 44° |
| 2026-05-04 14:38 | 39.28095 | -8.57120 | 23044 ft | 433 kts | 44° |
| 2026-05-04 14:39 | 39.30090 | -8.54190 | 23673 ft | 437 kts | 44° |
| 2026-05-04 14:39 | 39.32106 | -8.51225 | 23970 ft | 441 kts | 44° |
| 2026-05-04 14:39 | 39.34134 | -8.48246 | 24200 ft | 441 kts | 43° |
| 2026-05-04 14:40 | 39.38481 | -8.42604 | 25110 ft | 445 kts | 40° |
| 2026-05-04 14:40 | 39.40687 | -8.39759 | 25625 ft | 450 kts | 40° |
| 2026-05-04 14:40 | 39.42911 | -8.36895 | 26112 ft | 454 kts | 40° |
| 2026-05-04 14:40 | 39.45159 | -8.34002 | 26618 ft | 458 kts | 40° |
| 2026-05-04 14:41 | 39.47395 | -8.31122 | 27091 ft | 461 kts | 40° |
| 2026-05-04 14:41 | 39.49678 | -8.28179 | 27548 ft | 465 kts | 40° |
| 2026-05-04 14:41 | 39.54298 | -8.22212 | 28449 ft | 472 kts | 39° |
| 2026-05-04 14:42 | 39.58986 | -8.16144 | 29280 ft | 480 kts | 39° |
| 2026-05-04 14:42 | 39.61355 | -8.13074 | 29675 ft | 483 kts | 39° |
| 2026-05-04 14:42 | 39.63738 | -8.09981 | 30101 ft | 486 kts | 39° |
| 2026-05-04 14:43 | 39.66137 | -8.06864 | 30456 ft | 489 kts | 39° |
| 2026-05-04 14:43 | 39.68543 | -8.03736 | 30820 ft | 492 kts | 39° |
| 2026-05-04 14:43 | 39.70966 | -8.00581 | 31174 ft | 495 kts | 39° |
| 2026-05-04 14:43 | 39.73397 | -7.97413 | 31615 ft | 495 kts | 39° |
| 2026-05-04 14:44 | 39.75830 | -7.94237 | 32073 ft | 495 kts | 39° |
| 2026-05-04 14:44 | 39.78250 | -7.91075 | 32553 ft | 494 kts | 39° |
| 2026-05-04 14:44 | 39.80677 | -7.87902 | 32991 ft | 493 kts | 40° |
| 2026-05-04 14:44 | 39.83087 | -7.84749 | 33360 ft | 494 kts | 39° |
| 2026-05-04 14:45 | 39.85518 | -7.81564 | 33772 ft | 494 kts | 40° |
| 2026-05-04 14:45 | 39.87938 | -7.78390 | 34190 ft | 493 kts | 40° |
| 2026-05-04 14:45 | 39.90355 | -7.75217 | 34550 ft | 492 kts | 40° |
| 2026-05-04 14:45 | 39.92764 | -7.72052 | 34870 ft | 492 kts | 40° |
| 2026-05-04 14:46 | 39.95175 | -7.68882 | 35193 ft | 492 kts | 40° |
| 2026-05-04 14:46 | 39.97583 | -7.65713 | 35509 ft | 492 kts | 40° |
| 2026-05-04 14:46 | 39.99958 | -7.62585 | 35815 ft | 492 kts | 40° |
| 2026-05-04 14:46 | 40.02366 | -7.59410 | 36124 ft | 492 kts | 41° |
| 2026-05-04 14:47 | 40.04773 | -7.56231 | 36420 ft | 492 kts | 41° |
| 2026-05-04 14:47 | 40.07172 | -7.53060 | 36744 ft | 491 kts | 41° |
| 2026-05-04 14:47 | 40.09574 | -7.49880 | 37009 ft | 491 kts | 41° |
| 2026-05-04 14:47 | 40.11971 | -7.46704 | 37289 ft | 491 kts | 41° |
| 2026-05-04 14:48 | 40.14374 | -7.43518 | 37567 ft | 491 kts | 41° |
| 2026-05-04 14:48 | 40.16771 | -7.40334 | 37845 ft | 491 kts | 41° |
| 2026-05-04 14:48 | 40.19170 | -7.37146 | 37986 ft | 491 kts | 41° |
| 2026-05-04 14:48 | 40.21568 | -7.33953 | 37989 ft | 490 kts | 41° |
| 2026-05-04 14:49 | 40.26333 | -7.27599 | 37989 ft | 489 kts | 41° |
| 2026-05-04 14:49 | 40.31103 | -7.21228 | 37984 ft | 490 kts | 42° |
| 2026-05-04 14:50 | 40.35873 | -7.14840 | 37983 ft | 490 kts | 42° |
| 2026-05-04 14:50 | 40.40612 | -7.08481 | 37984 ft | 490 kts | 42° |
| 2026-05-04 14:51 | 40.45374 | -7.02077 | 37973 ft | 490 kts | 42° |
| 2026-05-04 14:51 | 40.50127 | -6.95672 | 37971 ft | 490 kts | 42° |
| 2026-05-04 14:52 | 40.54879 | -6.89253 | 37964 ft | 490 kts | 42° |
| 2026-05-04 14:52 | 40.59628 | -6.82826 | 37964 ft | 490 kts | 42° |
| 2026-05-04 14:53 | 40.64367 | -6.76397 | 37957 ft | 490 kts | 42° |
| 2026-05-04 14:53 | 40.69116 | -6.69941 | 37956 ft | 490 kts | 42° |
| 2026-05-04 14:54 | 40.73854 | -6.63486 | 37955 ft | 490 kts | 42° |
| 2026-05-04 14:54 | 40.78567 | -6.57051 | 37958 ft | 491 kts | 42° |
| 2026-05-04 14:55 | 40.83310 | -6.50561 | 37962 ft | 491 kts | 43° |
| 2026-05-04 14:55 | 40.87988 | -6.44145 | 37962 ft | 491 kts | 43° |
| 2026-05-04 14:56 | 40.92732 | -6.37625 | 37965 ft | 492 kts | 43° |
| 2026-05-04 14:56 | 40.97481 | -6.31088 | 37968 ft | 492 kts | 43° |
| 2026-05-04 14:57 | 41.02339 | -6.24721 | 37967 ft | 490 kts | 38° |
| 2026-05-04 14:57 | 41.07467 | -6.18771 | 37972 ft | 490 kts | 37° |
| 2026-05-04 14:58 | 41.11710 | -6.13796 | 37971 ft | 490 kts | 38° |
| 2026-05-04 14:58 | 41.16793 | -6.07736 | 37969 ft | 490 kts | 38° |
| 2026-05-04 14:59 | 41.21859 | -6.01658 | 37965 ft | 491 kts | 38° |
| 2026-05-04 15:00 | 41.29415 | -5.92566 | 37962 ft | 490 kts | 38° |
| 2026-05-04 15:00 | 41.34476 | -5.86463 | 37959 ft | 490 kts | 39° |
| 2026-05-04 15:01 | 41.42039 | -5.77317 | 37959 ft | 489 kts | 39° |
| 2026-05-04 15:01 | 41.47066 | -5.71221 | 37950 ft | 489 kts | 39° |
| 2026-05-04 15:02 | 41.51769 | -5.64664 | 37950 ft | 492 kts | 50° |
| 2026-05-04 15:02 | 41.55361 | -5.56886 | 37951 ft | 494 kts | 64° |
| 2026-05-04 15:03 | 41.58156 | -5.48495 | 37952 ft | 494 kts | 65° |
| 2026-05-04 15:03 | 41.60957 | -5.40112 | 37958 ft | 494 kts | 65° |
| 2026-05-04 15:04 | 41.63734 | -5.31739 | 37956 ft | 493 kts | 65° |
| 2026-05-04 15:04 | 41.66502 | -5.23348 | 37956 ft | 493 kts | 65° |
| 2026-05-04 15:05 | 41.69245 | -5.15004 | 37961 ft | 493 kts | 65° |
| 2026-05-04 15:05 | 41.71998 | -5.06606 | 37963 ft | 493 kts | 65° |
| 2026-05-04 15:06 | 41.74747 | -4.98191 | 37966 ft | 493 kts | 65° |
| 2026-05-04 15:07 | 41.78860 | -4.85556 | 37972 ft | 493 kts | 66° |
| 2026-05-04 15:07 | 41.81596 | -4.77119 | 37978 ft | 493 kts | 66° |
| 2026-05-04 15:08 | 41.84310 | -4.68724 | 37981 ft | 493 kts | 66° |
| 2026-05-04 15:08 | 41.87032 | -4.60275 | 37982 ft | 493 kts | 66° |
| 2026-05-04 15:09 | 41.89750 | -4.51814 | 37978 ft | 493 kts | 66° |
| 2026-05-04 15:09 | 41.92462 | -4.43346 | 37985 ft | 493 kts | 66° |
| 2026-05-04 15:10 | 41.96497 | -4.30699 | 37991 ft | 493 kts | 66° |
| 2026-05-04 15:11 | 42.00536 | -4.17975 | 37991 ft | 493 kts | 66° |
| 2026-05-04 15:11 | 42.03221 | -4.09503 | 37987 ft | 492 kts | 66° |
| 2026-05-04 15:12 | 42.06144 | -4.01168 | 37985 ft | 492 kts | 64° |
| 2026-05-04 15:12 | 42.09118 | -3.92890 | 37984 ft | 491 kts | 64° |
| 2026-05-04 15:13 | 42.12058 | -3.84570 | 37988 ft | 491 kts | 64° |
| 2026-05-04 15:13 | 42.14976 | -3.76245 | 37990 ft | 491 kts | 64° |
| 2026-05-04 15:14 | 42.17884 | -3.67918 | 37989 ft | 491 kts | 65° |
| 2026-05-04 15:14 | 42.20769 | -3.59636 | 37992 ft | 491 kts | 65° |
| 2026-05-04 15:15 | 42.23672 | -3.51275 | 37991 ft | 491 kts | 65° |
| 2026-05-04 15:15 | 42.26562 | -3.42928 | 37988 ft | 491 kts | 65° |
| 2026-05-04 15:16 | 42.30889 | -3.30384 | 37987 ft | 491 kts | 65° |
| 2026-05-04 15:17 | 42.35202 | -3.17822 | 37984 ft | 490 kts | 65° |
| 2026-05-04 15:17 | 42.39475 | -3.05321 | 37993 ft | 490 kts | 65° |
| 2026-05-04 15:18 | 42.42326 | -2.96947 | 37990 ft | 490 kts | 65° |
| 2026-05-04 15:19 | 42.45203 | -2.83774 | 37983 ft | 486 kts | 85° |
| 2026-05-04 15:19 | 42.45579 | -2.70093 | 37973 ft | 485 kts | 91° |
| 2026-05-04 15:20 | 42.45717 | -2.60957 | 37977 ft | 485 kts | 91° |
| 2026-05-04 15:20 | 42.45838 | -2.51834 | 37968 ft | 485 kts | 91° |
| 2026-05-04 15:21 | 42.45946 | -2.42753 | 37970 ft | 485 kts | 91° |
| 2026-05-04 15:22 | 42.46667 | -2.29070 | 37968 ft | 488 kts | 80° |
| 2026-05-04 15:22 | 42.48920 | -2.15582 | 37952 ft | 489 kts | 79° |
| 2026-05-04 15:23 | 42.49662 | -2.11096 | 37748 ft | 489 kts | 79° |
| 2026-05-04 15:23 | 42.50406 | -2.06595 | 37478 ft | 487 kts | 79° |
| 2026-05-04 15:23 | 42.51144 | -2.02116 | 37214 ft | 486 kts | 79° |
| 2026-05-04 15:23 | 42.51870 | -1.97705 | 36963 ft | 486 kts | 79° |
| 2026-05-04 15:24 | 42.53337 | -1.88755 | 36447 ft | 485 kts | 79° |
| 2026-05-04 15:24 | 42.54800 | -1.79792 | 35210 ft | 489 kts | 80° |
| 2026-05-04 15:25 | 42.55535 | -1.75274 | 34393 ft | 491 kts | 80° |
| 2026-05-04 15:25 | 42.56271 | -1.70732 | 33464 ft | 494 kts | 81° |
| 2026-05-04 15:25 | 42.57005 | -1.66194 | 32556 ft | 494 kts | 81° |
| 2026-05-04 15:26 | 42.58472 | -1.57091 | 30840 ft | 490 kts | 81° |
| 2026-05-04 15:26 | 42.59193 | -1.52606 | 30222 ft | 484 kts | 81° |
| 2026-05-04 15:26 | 42.60603 | -1.43792 | 28914 ft | 469 kts | 82° |
| 2026-05-04 15:27 | 42.61288 | -1.39489 | 28318 ft | 462 kts | 82° |
| 2026-05-04 15:27 | 42.62607 | -1.31168 | 27970 ft | 447 kts | 82° |
| 2026-05-04 15:28 | 42.63910 | -1.22857 | 27964 ft | 450 kts | 82° |
| 2026-05-04 15:28 | 42.64563 | -1.18694 | 27960 ft | 451 kts | 82° |
| 2026-05-04 15:28 | 42.65867 | -1.10358 | 27958 ft | 452 kts | 82° |
| 2026-05-04 15:29 | 42.66508 | -1.06238 | 27955 ft | 452 kts | 82° |
| 2026-05-04 15:30 | 42.69102 | -0.89493 | 27951 ft | 453 kts | 82° |
| 2026-05-04 15:30 | 42.71034 | -0.76896 | 27917 ft | 453 kts | 83° |
| 2026-05-04 15:31 | 42.72311 | -0.68511 | 26621 ft | 455 kts | 82° |
| 2026-05-04 15:31 | 42.72952 | -0.64272 | 25573 ft | 461 kts | 82° |
| 2026-05-04 15:32 | 42.74864 | -0.51616 | 23959 ft | 438 kts | 82° |
| 2026-05-04 15:32 | 42.76053 | -0.43714 | 23612 ft | 424 kts | 82° |
| 2026-05-04 15:33 | 42.77223 | -0.35837 | 23222 ft | 423 kts | 82° |
| 2026-05-04 15:34 | 42.78974 | -0.24069 | 22686 ft | 421 kts | 81° |
| 2026-05-04 15:34 | 42.79834 | -0.20294 | 22499 ft | 426 kts | 70° |
| 2026-05-04 15:34 | 42.82956 | -0.13403 | 22137 ft | 429 kts | 55° |
| 2026-05-04 15:35 | 42.86545 | -0.06938 | 21778 ft | 426 kts | 55° |
| 2026-05-04 15:35 | 42.88322 | -0.03715 | 21601 ft | 425 kts | 55° |
| 2026-05-04 15:35 | 42.90095 | -0.00496 | 21419 ft | 424 kts | 56° |
| 2026-05-04 15:36 | 42.93626 | 0.05924 | 21051 ft | 421 kts | 56° |
| 2026-05-04 15:36 | 42.95377 | 0.09113 | 20879 ft | 419 kts | 56° |
| 2026-05-04 15:36 | 42.97122 | 0.12295 | 20694 ft | 419 kts | 56° |
| 2026-05-04 15:37 | 42.98868 | 0.15478 | 20527 ft | 416 kts | 56° |
| 2026-05-04 15:37 | 43.00603 | 0.18646 | 20340 ft | 415 kts | 56° |
| 2026-05-04 15:37 | 43.02243 | 0.21642 | 20173 ft | 413 kts | 56° |
| 2026-05-04 15:37 | 43.03602 | 0.24131 | 20033 ft | 414 kts | 56° |
| 2026-05-04 15:38 | 43.05317 | 0.27270 | 19967 ft | 411 kts | 56° |
| 2026-05-04 15:38 | 43.07025 | 0.30404 | 19710 ft | 410 kts | 56° |
| 2026-05-04 15:38 | 43.08735 | 0.33542 | 19116 ft | 411 kts | 56° |
| 2026-05-04 15:38 | 43.10420 | 0.36638 | 18835 ft | 401 kts | 56° |
| 2026-05-04 15:39 | 43.12082 | 0.39694 | 18535 ft | 402 kts | 56° |
| 2026-05-04 15:39 | 43.13750 | 0.42769 | 18224 ft | 401 kts | 56° |
| 2026-05-04 15:39 | 43.17053 | 0.48860 | 17618 ft | 395 kts | 56° |
| 2026-05-04 15:40 | 43.18686 | 0.51877 | 17320 ft | 394 kts | 56° |
| 2026-05-04 15:40 | 43.20313 | 0.54886 | 17010 ft | 392 kts | 56° |
| 2026-05-04 15:40 | 43.21931 | 0.57882 | 16718 ft | 390 kts | 56° |
| 2026-05-04 15:40 | 43.23541 | 0.60866 | 16428 ft | 387 kts | 56° |
| 2026-05-04 15:41 | 43.25136 | 0.63824 | 16136 ft | 386 kts | 56° |
| 2026-05-04 15:41 | 43.26732 | 0.66787 | 15846 ft | 385 kts | 56° |
| 2026-05-04 15:41 | 43.28316 | 0.69731 | 15561 ft | 383 kts | 55° |
| 2026-05-04 15:41 | 43.29838 | 0.72713 | 15269 ft | 380 kts | 63° |
| 2026-05-04 15:42 | 43.30779 | 0.76050 | 15018 ft | 372 kts | 81° |
| 2026-05-04 15:42 | 43.30967 | 0.79550 | 14956 ft | 366 kts | 96° |
| 2026-05-04 15:42 | 43.30827 | 0.83005 | 14943 ft | 368 kts | 96° |
| 2026-05-04 15:42 | 43.30691 | 0.86516 | 14832 ft | 367 kts | 96° |
| 2026-05-04 15:43 | 43.30558 | 0.90023 | 14345 ft | 369 kts | 96° |
| 2026-05-04 15:43 | 43.30421 | 0.93566 | 13491 ft | 375 kts | 96° |
| 2026-05-04 15:43 | 43.30280 | 0.97178 | 12580 ft | 380 kts | 95° |
| 2026-05-04 15:43 | 43.30140 | 1.00785 | 11896 ft | 376 kts | 95° |
| 2026-05-04 15:44 | 43.30000 | 1.04340 | 11056 ft | 371 kts | 95° |
| 2026-05-04 15:44 | 43.29862 | 1.07839 | 10456 ft | 361 kts | 95° |
| 2026-05-04 15:44 | 43.29732 | 1.11175 | 10215 ft | 339 kts | 95° |
| 2026-05-04 15:44 | 43.29607 | 1.14312 | 10005 ft | 319 kts | 95° |
| 2026-05-04 15:45 | 43.29486 | 1.17273 | 9686 ft | 304 kts | 95° |
| 2026-05-04 15:45 | 43.29616 | 1.20143 | 9087 ft | 301 kts | 74° |
| 2026-05-04 15:45 | 43.30566 | 1.22607 | 8741 ft | 288 kts | 48° |
| 2026-05-04 15:45 | 43.32169 | 1.24239 | 8392 ft | 293 kts | 21° |
| 2026-05-04 15:46 | 43.33459 | 1.24753 | 8151 ft | 293 kts | 8° |
| 2026-05-04 15:46 | 43.35457 | 1.25084 | 7957 ft | 283 kts | 3° |
| 2026-05-04 15:46 | 43.37364 | 1.25291 | 7924 ft | 267 kts | 3° |
| 2026-05-04 15:46 | 43.39152 | 1.25519 | 7924 ft | 250 kts | 4° |
| 2026-05-04 15:47 | 43.40783 | 1.26081 | 7869 ft | 238 kts | 27° |
| 2026-05-04 15:47 | 43.41997 | 1.27549 | 7739 ft | 230 kts | 57° |
| 2026-05-04 15:47 | 43.42545 | 1.29526 | 7639 ft | 217 kts | 78° |
| 2026-05-04 15:47 | 43.42860 | 1.31524 | 7453 ft | 211 kts | 78° |
| 2026-05-04 15:48 | 43.43181 | 1.33481 | 7192 ft | 208 kts | 77° |
| 2026-05-04 15:48 | 43.43504 | 1.35419 | 6935 ft | 206 kts | 77° |
| 2026-05-04 15:48 | 43.44115 | 1.39072 | 6323 ft | 199 kts | 77° |
| 2026-05-04 15:49 | 43.44432 | 1.40983 | 5655 ft | 212 kts | 77° |
| 2026-05-04 15:49 | 43.44769 | 1.43026 | 5023 ft | 225 kts | 76° |
| 2026-05-04 15:49 | 43.45121 | 1.45159 | 4455 ft | 231 kts | 76° |
| 2026-05-04 15:49 | 43.45475 | 1.47300 | 4111 ft | 230 kts | 76° |
| 2026-05-04 15:50 | 43.45873 | 1.49431 | 3792 ft | 226 kts | 65° |
| 2026-05-04 15:50 | 43.46821 | 1.51020 | 3624 ft | 212 kts | 30° |
| 2026-05-04 15:50 | 43.48165 | 1.51549 | 3536 ft | 197 kts | 354° |
| 2026-05-04 15:50 | 43.49368 | 1.50910 | 3506 ft | 178 kts | 320° |
| 2026-05-04 15:51 | 43.50266 | 1.49869 | 3356 ft | 163 kts | 321° |
| 2026-05-04 15:51 | 43.51119 | 1.48960 | 3139 ft | 145 kts | 321° |
| 2026-05-04 15:51 | 43.51878 | 1.48165 | 2940 ft | 129 kts | 322° |
| 2026-05-04 15:51 | 43.52560 | 1.47451 | 2762 ft | 117 kts | 321° |
| 2026-05-04 15:52 | 43.53222 | 1.46756 | 2614 ft | 125 kts | 321° |
| 2026-05-04 15:52 | 43.53909 | 1.46036 | 2456 ft | 125 kts | 321° |
| 2026-05-04 15:52 | 43.54602 | 1.45314 | 2282 ft | 122 kts | 322° |
| 2026-05-04 15:52 | 43.55277 | 1.44608 | 2128 ft | 123 kts | 321° |
| 2026-05-04 15:53 | 43.55986 | 1.43863 | 1962 ft | 134 kts | 319° |
| 2026-05-04 15:53 | 43.56739 | 1.43079 | 1764 ft | 134 kts | 322° |
| 2026-05-04 15:53 | 43.57416 | 1.42371 | 1598 ft | 127 kts | 321° |
| 2026-05-04 15:53 | 43.58115 | 1.41640 | 1409 ft | 125 kts | 322° |
| 2026-05-04 15:54 | 43.58793 | 1.40931 | 1229 ft | 121 kts | 322° |
| 2026-05-04 15:54 | 43.59451 | 1.40242 | 1057 ft | 117 kts | 322° |
| 2026-05-04 15:54 | 43.60087 | 1.39579 | 903 ft | 115 kts | 321° |
| 2026-05-04 15:54 | 43.60689 | 1.38948 | 754 ft | 118 kts | 321° |
| 2026-05-04 15:55 | 43.61353 | 1.38253 | 568 ft | 121 kts | 321° |
| 2026-05-04 15:55 | 43.62001 | 1.37557 | 516 ft | 115 kts | 320° |
| 2026-05-04 15:55 | 43.62648 | 1.36875 | 641 ft | 134 kts | 321° |
| 2026-05-04 15:55 | 43.63399 | 1.36046 | 1351 ft | 142 kts | 321° |
| 2026-05-04 15:56 | 43.64207 | 1.35124 | 2014 ft | 160 kts | 319° |
| 2026-05-04 15:56 | 43.65126 | 1.34068 | 2634 ft | 183 kts | 320° |
| 2026-05-04 15:56 | 43.66148 | 1.32907 | 3428 ft | 195 kts | 320° |
| 2026-05-04 15:56 | 43.67230 | 1.31689 | 3844 ft | 205 kts | 319° |
| 2026-05-04 15:57 | 43.68335 | 1.30447 | 3982 ft | 205 kts | 319° |
| 2026-05-04 15:57 | 43.69176 | 1.28905 | 4000 ft | 202 kts | 289° |
| 2026-05-04 15:57 | 43.69202 | 1.26986 | 4004 ft | 206 kts | 255° |
| 2026-05-04 15:57 | 43.68395 | 1.25389 | 3998 ft | 207 kts | 219° |
| 2026-05-04 15:58 | 43.67031 | 1.24729 | 4003 ft | 214 kts | 184° |
| 2026-05-04 15:58 | 43.65589 | 1.25284 | 4002 ft | 223 kts | 148° |
| 2026-05-04 15:58 | 43.64468 | 1.26717 | 3998 ft | 222 kts | 132° |
| 2026-05-04 15:58 | 43.63434 | 1.28302 | 4001 ft | 222 kts | 133° |
| 2026-05-04 15:59 | 43.62335 | 1.29792 | 3997 ft | 221 kts | 147° |
| 2026-05-04 15:59 | 43.61023 | 1.30866 | 3946 ft | 217 kts | 151° |
| 2026-05-04 15:59 | 43.59714 | 1.31899 | 3629 ft | 219 kts | 151° |
| 2026-05-04 15:59 | 43.58376 | 1.32941 | 3285 ft | 223 kts | 152° |
| 2026-05-04 16:00 | 43.57030 | 1.34001 | 3049 ft | 220 kts | 151° |
| 2026-05-04 16:00 | 43.55664 | 1.35061 | 3010 ft | 233 kts | 152° |
| 2026-05-04 16:00 | 43.54204 | 1.36176 | 3002 ft | 243 kts | 152° |
| 2026-05-04 16:00 | 43.52734 | 1.37296 | 2998 ft | 240 kts | 152° |
| 2026-05-04 16:01 | 43.51284 | 1.38410 | 3093 ft | 237 kts | 151° |
| 2026-05-04 16:01 | 43.49844 | 1.39587 | 2970 ft | 238 kts | 150° |
| 2026-05-04 16:01 | 43.48461 | 1.40662 | 2989 ft | 219 kts | 152° |
| 2026-05-04 16:01 | 43.47097 | 1.41728 | 3003 ft | 234 kts | 152° |
| 2026-05-04 16:02 | 43.45715 | 1.42885 | 2990 ft | 226 kts | 139° |
| 2026-05-04 16:02 | 43.44897 | 1.44584 | 2985 ft | 207 kts | 102° |
| 2026-05-04 16:02 | 43.45715 | 1.47574 | 2978 ft | 155 kts | 20° |
| 2026-05-04 16:03 | 43.46678 | 1.47816 | 2986 ft | 128 kts | 2° |
| 2026-05-04 16:03 | 43.47488 | 1.47957 | 3008 ft | 118 kts | 3° |
| 2026-05-04 16:03 | 43.48353 | 1.48109 | 2992 ft | 126 kts | 4° |
| 2026-05-04 16:03 | 43.49240 | 1.48272 | 3001 ft | 131 kts | 4° |
| 2026-05-04 16:04 | 43.50140 | 1.48438 | 2993 ft | 130 kts | 3° |
| 2026-05-04 16:04 | 43.51889 | 1.48008 | 2886 ft | 129 kts | 329° |
| 2026-05-04 16:04 | 43.52648 | 1.47342 | 2729 ft | 129 kts | 322° |
| 2026-05-04 16:05 | 43.53375 | 1.46596 | 2568 ft | 129 kts | 321° |
| 2026-05-04 16:05 | 43.54090 | 1.45848 | 2407 ft | 129 kts | 321° |
| 2026-05-04 16:05 | 43.55562 | 1.44308 | 2056 ft | 138 kts | 320° |
| 2026-05-04 16:06 | 43.56313 | 1.43523 | 1852 ft | 130 kts | 322° |
| 2026-05-04 16:06 | 43.58092 | 1.41664 | 1413 ft | 114 kts | 322° |
| 2026-05-04 16:07 | 43.58928 | 1.40789 | 1198 ft | 115 kts | 322° |
| 2026-05-04 16:07 | 43.60908 | 1.38733 | 680 ft | 121 kts | 322° |
| 2026-05-04 16:08 | 43.61571 | 1.38016 | 615 ft | 122 kts | 319° |
| 2026-05-04 16:08 | 43.63022 | 1.36494 | 500 ft | 49 kts | 325° |
| 2026-05-04 16:09 | 43.63484 | 1.36023 | 501 ft | 33 kts | 322° |
| 2026-05-04 16:09 | 43.63795 | 1.35892 | 498 ft | 12 kts | 51° |
| 2026-05-04 16:10 | 43.63814 | 1.35979 | 498 ft | 13 kts | 109° |
| 2026-05-04 16:11 | 43.63425 | 1.36398 | 500 ft | 30 kts | 141° |
| 2026-05-04 16:11 | 43.63268 | 1.36589 | 500 ft | 27 kts | 114° |
| 2026-05-04 16:12 | 43.63119 | 1.36874 | 501 ft | 18 kts | 144° |
| 2026-05-04 16:12 | 43.63119 | 1.37046 | 501 ft | 0 kts | 21° |